sensor_id;sensor_type;location;lat;lon;timestamp;P1;durP1;ratioP1;P2;durP2;ratioP2
19111;SDS011;9688;51.906;8.376;2023-02-28T00:01:21;6.67;;;3.20;;
19111;SDS011;9688;51.906;8.376;2023-02-28T00:04:08;4.60;;;2.70;;
19111;SDS011;9688;51.906;8.376;2023-02-28T00:06:55;7.30;;;3.40;;
19111;SDS011;9688;51.906;8.376;2023-02-28T00:09:41;7.07;;;4.07;;
19111;SDS011;9688;51.906;8.376;2023-02-28T00:12:29;4.97;;;3.80;;
19111;SDS011;9688;51.906;8.376;2023-02-28T00:15:15;6.77;;;3.97;;
19111;SDS011;9688;51.906;8.376;2023-02-28T00:18:01;7.50;;;3.80;;
19111;SDS011;9688;51.906;8.376;2023-02-28T00:20:47;5.03;;;3.77;;
19111;SDS011;9688;51.906;8.376;2023-02-28T00:23:35;8.27;;;4.60;;
19111;SDS011;9688;51.906;8.376;2023-02-28T00:26:21;5.97;;;3.80;;
19111;SDS011;9688;51.906;8.376;2023-02-28T00:29:08;8.57;;;4.50;;
19111;SDS011;9688;51.906;8.376;2023-02-28T00:31:54;7.00;;;4.13;;
19111;SDS011;9688;51.906;8.376;2023-02-28T00:34:40;5.30;;;3.57;;
19111;SDS011;9688;51.906;8.376;2023-02-28T00:37:26;4.93;;;3.03;;
19111;SDS011;9688;51.906;8.376;2023-02-28T00:40:14;5.83;;;3.37;;
19111;SDS011;9688;51.906;8.376;2023-02-28T00:43:00;6.33;;;3.47;;
19111;SDS011;9688;51.906;8.376;2023-02-28T00:45:47;5.77;;;3.30;;
19111;SDS011;9688;51.906;8.376;2023-02-28T00:48:32;6.03;;;3.43;;
19111;SDS011;9688;51.906;8.376;2023-02-28T00:51:18;3.53;;;3.03;;
19111;SDS011;9688;51.906;8.376;2023-02-28T00:54:04;5.57;;;3.27;;
19111;SDS011;9688;51.906;8.376;2023-02-28T00:56:51;5.43;;;3.73;;
19111;SDS011;9688;51.906;8.376;2023-02-28T00:59:37;6.37;;;3.37;;
19111;SDS011;9688;51.906;8.376;2023-02-28T01:02:23;6.27;;;3.77;;
19111;SDS011;9688;51.906;8.376;2023-02-28T01:05:09;4.73;;;3.60;;
19111;SDS011;9688;51.906;8.376;2023-02-28T01:07:56;5.00;;;3.47;;
19111;SDS011;9688;51.906;8.376;2023-02-28T01:10:41;3.73;;;3.03;;
19111;SDS011;9688;51.906;8.376;2023-02-28T01:13:29;3.00;;;2.80;;
19111;SDS011;9688;51.906;8.376;2023-02-28T01:16:15;3.03;;;2.70;;
19111;SDS011;9688;51.906;8.376;2023-02-28T01:19:01;3.53;;;2.90;;
19111;SDS011;9688;51.906;8.376;2023-02-28T01:21:47;5.23;;;3.07;;
19111;SDS011;9688;51.906;8.376;2023-02-28T01:24:33;4.40;;;2.73;;
19111;SDS011;9688;51.906;8.376;2023-02-28T01:27:19;3.63;;;2.60;;
19111;SDS011;9688;51.906;8.376;2023-02-28T01:30:08;3.77;;;3.00;;
19111;SDS011;9688;51.906;8.376;2023-02-28T01:32:59;4.77;;;3.10;;
19111;SDS011;9688;51.906;8.376;2023-02-28T01:35:45;4.37;;;2.80;;
19111;SDS011;9688;51.906;8.376;2023-02-28T01:38:31;4.67;;;3.10;;
19111;SDS011;9688;51.906;8.376;2023-02-28T01:41:18;5.53;;;3.23;;
19111;SDS011;9688;51.906;8.376;2023-02-28T01:44:05;6.07;;;3.27;;
19111;SDS011;9688;51.906;8.376;2023-02-28T01:47:13;3.73;;;3.23;;
19111;SDS011;9688;51.906;8.376;2023-02-28T01:50:00;6.30;;;3.27;;
19111;SDS011;9688;51.906;8.376;2023-02-28T01:52:52;4.13;;;2.60;;
19111;SDS011;9688;51.906;8.376;2023-02-28T01:55:42;4.17;;;2.57;;
19111;SDS011;9688;51.906;8.376;2023-02-28T01:58:33;3.43;;;3.10;;
19111;SDS011;9688;51.906;8.376;2023-02-28T02:01:21;3.77;;;2.67;;
19111;SDS011;9688;51.906;8.376;2023-02-28T02:04:10;4.40;;;2.57;;
19111;SDS011;9688;51.906;8.376;2023-02-28T02:06:55;5.23;;;2.73;;
19111;SDS011;9688;51.906;8.376;2023-02-28T02:09:43;2.60;;;2.40;;
19111;SDS011;9688;51.906;8.376;2023-02-28T02:12:31;3.70;;;2.47;;
19111;SDS011;9688;51.906;8.376;2023-02-28T02:15:26;5.80;;;2.50;;
19111;SDS011;9688;51.906;8.376;2023-02-28T02:18:20;3.40;;;2.57;;
19111;SDS011;9688;51.906;8.376;2023-02-28T02:24:49;3.17;;;2.53;;
19111;SDS011;9688;51.906;8.376;2023-02-28T02:27:57;5.63;;;2.70;;
19111;SDS011;9688;51.906;8.376;2023-02-28T02:34:25;3.60;;;2.20;;
19111;SDS011;9688;51.906;8.376;2023-02-28T02:37:15;4.57;;;2.67;;
19111;SDS011;9688;51.906;8.376;2023-02-28T02:40:16;3.07;;;2.60;;
19111;SDS011;9688;51.906;8.376;2023-02-28T02:43:06;2.67;;;2.47;;
19111;SDS011;9688;51.906;8.376;2023-02-28T02:45:59;6.00;;;2.80;;
19111;SDS011;9688;51.906;8.376;2023-02-28T02:48:49;7.67;;;2.80;;
19111;SDS011;9688;51.906;8.376;2023-02-28T02:51:41;4.40;;;2.77;;
19111;SDS011;9688;51.906;8.376;2023-02-28T02:54:30;5.10;;;2.77;;
19111;SDS011;9688;51.906;8.376;2023-02-28T02:57:21;3.73;;;2.77;;
19111;SDS011;9688;51.906;8.376;2023-02-28T03:00:11;3.37;;;2.47;;
19111;SDS011;9688;51.906;8.376;2023-02-28T03:03:01;2.63;;;2.40;;
19111;SDS011;9688;51.906;8.376;2023-02-28T03:05:48;6.27;;;2.57;;
19111;SDS011;9688;51.906;8.376;2023-02-28T03:08:37;6.00;;;2.57;;
19111;SDS011;9688;51.906;8.376;2023-02-28T03:11:23;3.70;;;2.70;;
19111;SDS011;9688;51.906;8.376;2023-02-28T03:14:25;5.00;;;2.80;;
19111;SDS011;9688;51.906;8.376;2023-02-28T03:17:28;3.23;;;2.70;;
19111;SDS011;9688;51.906;8.376;2023-02-28T03:20:27;5.83;;;2.83;;
19111;SDS011;9688;51.906;8.376;2023-02-28T03:23:21;3.77;;;2.73;;
19111;SDS011;9688;51.906;8.376;2023-02-28T03:26:16;6.63;;;3.50;;
19111;SDS011;9688;51.906;8.376;2023-02-28T03:29:07;4.10;;;3.00;;
19111;SDS011;9688;51.906;8.376;2023-02-28T03:32:03;3.10;;;2.80;;
19111;SDS011;9688;51.906;8.376;2023-02-28T03:34:58;6.63;;;2.80;;
19111;SDS011;9688;51.906;8.376;2023-02-28T03:37:52;3.87;;;2.50;;
19111;SDS011;9688;51.906;8.376;2023-02-28T03:40:45;8.23;;;4.03;;
19111;SDS011;9688;51.906;8.376;2023-02-28T03:43:36;4.40;;;3.33;;
19111;SDS011;9688;51.906;8.376;2023-02-28T03:46:27;4.50;;;3.57;;
19111;SDS011;9688;51.906;8.376;2023-02-28T03:49:17;5.33;;;3.60;;
19111;SDS011;9688;51.906;8.376;2023-02-28T03:52:06;8.70;;;3.93;;
19111;SDS011;9688;51.906;8.376;2023-02-28T03:54:54;4.20;;;3.10;;
19111;SDS011;9688;51.906;8.376;2023-02-28T03:57:47;6.57;;;3.73;;
19111;SDS011;9688;51.906;8.376;2023-02-28T04:00:43;5.50;;;2.97;;
19111;SDS011;9688;51.906;8.376;2023-02-28T04:03:33;5.20;;;3.33;;
19111;SDS011;9688;51.906;8.376;2023-02-28T04:06:20;5.47;;;3.10;;
19111;SDS011;9688;51.906;8.376;2023-02-28T04:09:08;7.23;;;3.93;;
19111;SDS011;9688;51.906;8.376;2023-02-28T04:11:56;5.80;;;3.73;;
19111;SDS011;9688;51.906;8.376;2023-02-28T04:14:41;3.93;;;3.53;;
19111;SDS011;9688;51.906;8.376;2023-02-28T04:17:28;4.90;;;3.70;;
19111;SDS011;9688;51.906;8.376;2023-02-28T04:20:15;5.03;;;2.80;;
19111;SDS011;9688;51.906;8.376;2023-02-28T04:23:01;3.97;;;2.90;;
19111;SDS011;9688;51.906;8.376;2023-02-28T04:25:46;8.10;;;3.40;;
19111;SDS011;9688;51.906;8.376;2023-02-28T04:28:33;4.23;;;3.83;;
19111;SDS011;9688;51.906;8.376;2023-02-28T04:31:19;2.80;;;2.60;;
19111;SDS011;9688;51.906;8.376;2023-02-28T04:34:06;3.40;;;3.10;;
19111;SDS011;9688;51.906;8.376;2023-02-28T04:36:53;3.67;;;2.90;;
19111;SDS011;9688;51.906;8.376;2023-02-28T04:39:39;5.27;;;3.10;;
19111;SDS011;9688;51.906;8.376;2023-02-28T04:42:25;3.83;;;2.73;;
19111;SDS011;9688;51.906;8.376;2023-02-28T04:45:12;9.87;;;2.70;;
19111;SDS011;9688;51.906;8.376;2023-02-28T04:47:57;5.67;;;3.17;;
19111;SDS011;9688;51.906;8.376;2023-02-28T04:50:44;6.13;;;3.93;;
19111;SDS011;9688;51.906;8.376;2023-02-28T04:53:31;6.93;;;3.80;;
19111;SDS011;9688;51.906;8.376;2023-02-28T04:56:17;6.60;;;3.97;;
19111;SDS011;9688;51.906;8.376;2023-02-28T04:59:03;4.17;;;3.53;;
19111;SDS011;9688;51.906;8.376;2023-02-28T05:01:49;5.90;;;4.00;;
19111;SDS011;9688;51.906;8.376;2023-02-28T05:04:35;5.03;;;3.90;;
19111;SDS011;9688;51.906;8.376;2023-02-28T05:07:23;6.57;;;4.00;;
19111;SDS011;9688;51.906;8.376;2023-02-28T05:10:09;5.83;;;3.80;;
19111;SDS011;9688;51.906;8.376;2023-02-28T05:12:59;5.43;;;4.10;;
19111;SDS011;9688;51.906;8.376;2023-02-28T05:15:47;6.00;;;3.70;;
19111;SDS011;9688;51.906;8.376;2023-02-28T05:18:33;5.23;;;3.70;;
19111;SDS011;9688;51.906;8.376;2023-02-28T05:21:25;5.07;;;3.70;;
19111;SDS011;9688;51.906;8.376;2023-02-28T05:24:15;4.93;;;3.73;;
19111;SDS011;9688;51.906;8.376;2023-02-28T05:27:07;6.00;;;3.50;;
19111;SDS011;9688;51.906;8.376;2023-02-28T05:29:53;6.00;;;3.80;;
19111;SDS011;9688;51.906;8.376;2023-02-28T05:32:39;5.07;;;3.37;;
19111;SDS011;9688;51.906;8.376;2023-02-28T05:35:26;5.77;;;3.23;;
19111;SDS011;9688;51.906;8.376;2023-02-28T05:38:12;7.03;;;3.73;;
19111;SDS011;9688;51.906;8.376;2023-02-28T05:41:00;5.93;;;3.47;;
19111;SDS011;9688;51.906;8.376;2023-02-28T05:43:49;5.63;;;3.67;;
19111;SDS011;9688;51.906;8.376;2023-02-28T05:46:35;5.43;;;3.50;;
19111;SDS011;9688;51.906;8.376;2023-02-28T05:49:21;3.80;;;3.30;;
19111;SDS011;9688;51.906;8.376;2023-02-28T05:52:07;3.50;;;3.10;;
19111;SDS011;9688;51.906;8.376;2023-02-28T05:54:53;4.30;;;3.60;;
19111;SDS011;9688;51.906;8.376;2023-02-28T05:57:40;7.83;;;4.13;;
19111;SDS011;9688;51.906;8.376;2023-02-28T06:00:26;4.93;;;3.30;;
19111;SDS011;9688;51.906;8.376;2023-02-28T06:03:12;4.60;;;3.60;;
19111;SDS011;9688;51.906;8.376;2023-02-28T06:05:58;6.40;;;3.83;;
19111;SDS011;9688;51.906;8.376;2023-02-28T06:08:46;4.70;;;3.27;;
19111;SDS011;9688;51.906;8.376;2023-02-28T06:11:34;5.70;;;3.33;;
19111;SDS011;9688;51.906;8.376;2023-02-28T06:14:21;5.37;;;3.40;;
19111;SDS011;9688;51.906;8.376;2023-02-28T06:17:08;5.07;;;3.63;;
19111;SDS011;9688;51.906;8.376;2023-02-28T06:19:55;7.23;;;3.77;;
19111;SDS011;9688;51.906;8.376;2023-02-28T06:22:41;4.50;;;3.40;;
19111;SDS011;9688;51.906;8.376;2023-02-28T06:25:27;3.90;;;3.53;;
19111;SDS011;9688;51.906;8.376;2023-02-28T06:28:13;8.03;;;3.30;;
19111;SDS011;9688;51.906;8.376;2023-02-28T06:31:04;4.63;;;3.30;;
19111;SDS011;9688;51.906;8.376;2023-02-28T06:33:51;7.93;;;3.53;;
19111;SDS011;9688;51.906;8.376;2023-02-28T06:36:37;6.70;;;3.77;;
19111;SDS011;9688;51.906;8.376;2023-02-28T06:39:23;3.73;;;3.10;;
19111;SDS011;9688;51.906;8.376;2023-02-28T06:42:09;3.80;;;3.20;;
19111;SDS011;9688;51.906;8.376;2023-02-28T06:44:55;4.20;;;3.30;;
19111;SDS011;9688;51.906;8.376;2023-02-28T06:47:43;5.90;;;3.27;;
19111;SDS011;9688;51.906;8.376;2023-02-28T06:50:36;3.30;;;3.00;;
19111;SDS011;9688;51.906;8.376;2023-02-28T06:53:22;9.10;;;3.33;;
19111;SDS011;9688;51.906;8.376;2023-02-28T06:56:10;13.40;;;6.33;;
19111;SDS011;9688;51.906;8.376;2023-02-28T06:58:57;5.07;;;3.80;;
19111;SDS011;9688;51.906;8.376;2023-02-28T07:01:45;6.23;;;3.70;;
19111;SDS011;9688;51.906;8.376;2023-02-28T07:04:35;6.80;;;3.67;;
19111;SDS011;9688;51.906;8.376;2023-02-28T07:07:24;6.70;;;3.90;;
19111;SDS011;9688;51.906;8.376;2023-02-28T07:10:11;6.73;;;3.90;;
19111;SDS011;9688;51.906;8.376;2023-02-28T07:13:06;8.00;;;3.77;;
19111;SDS011;9688;51.906;8.376;2023-02-28T07:15:55;10.07;;;3.90;;
19111;SDS011;9688;51.906;8.376;2023-02-28T07:18:42;9.73;;;4.50;;
19111;SDS011;9688;51.906;8.376;2023-02-28T07:21:29;9.83;;;4.67;;
19111;SDS011;9688;51.906;8.376;2023-02-28T07:24:15;11.07;;;4.50;;
19111;SDS011;9688;51.906;8.376;2023-02-28T07:27:01;7.03;;;3.93;;
19111;SDS011;9688;51.906;8.376;2023-02-28T07:29:47;14.87;;;4.67;;
19111;SDS011;9688;51.906;8.376;2023-02-28T07:32:37;13.27;;;3.63;;
19111;SDS011;9688;51.906;8.376;2023-02-28T07:35:23;10.77;;;3.77;;
19111;SDS011;9688;51.906;8.376;2023-02-28T07:38:10;5.37;;;3.70;;
19111;SDS011;9688;51.906;8.376;2023-02-28T07:40:58;9.10;;;3.40;;
19111;SDS011;9688;51.906;8.376;2023-02-28T07:43:48;11.33;;;3.73;;
19111;SDS011;9688;51.906;8.376;2023-02-28T07:46:33;6.57;;;4.03;;
19111;SDS011;9688;51.906;8.376;2023-02-28T07:49:20;5.53;;;3.53;;
19111;SDS011;9688;51.906;8.376;2023-02-28T07:52:06;6.87;;;3.10;;
19111;SDS011;9688;51.906;8.376;2023-02-28T07:54:54;6.33;;;3.17;;
19111;SDS011;9688;51.906;8.376;2023-02-28T07:57:44;5.53;;;3.03;;
19111;SDS011;9688;51.906;8.376;2023-02-28T08:00:32;6.27;;;3.03;;
19111;SDS011;9688;51.906;8.376;2023-02-28T08:03:19;2.93;;;2.53;;
19111;SDS011;9688;51.906;8.376;2023-02-28T08:06:06;4.97;;;2.63;;
19111;SDS011;9688;51.906;8.376;2023-02-28T08:08:54;2.73;;;2.53;;
19111;SDS011;9688;51.906;8.376;2023-02-28T08:11:41;6.17;;;2.63;;
19111;SDS011;9688;51.906;8.376;2023-02-28T08:14:27;3.77;;;2.00;;
19111;SDS011;9688;51.906;8.376;2023-02-28T08:17:13;11.37;;;2.73;;
19111;SDS011;9688;51.906;8.376;2023-02-28T08:19:59;6.57;;;3.33;;
19111;SDS011;9688;51.906;8.376;2023-02-28T08:22:48;6.80;;;3.30;;
19111;SDS011;9688;51.906;8.376;2023-02-28T08:25:35;5.10;;;2.73;;
19111;SDS011;9688;51.906;8.376;2023-02-28T08:28:23;2.77;;;2.13;;
19111;SDS011;9688;51.906;8.376;2023-02-28T08:31:11;4.73;;;2.90;;
19111;SDS011;9688;51.906;8.376;2023-02-28T08:34:00;3.47;;;2.20;;
19111;SDS011;9688;51.906;8.376;2023-02-28T08:36:51;2.30;;;2.10;;
19111;SDS011;9688;51.906;8.376;2023-02-28T08:39:37;3.13;;;2.30;;
19111;SDS011;9688;51.906;8.376;2023-02-28T08:42:25;5.67;;;2.40;;
19111;SDS011;9688;51.906;8.376;2023-02-28T08:45:16;2.13;;;1.90;;
19111;SDS011;9688;51.906;8.376;2023-02-28T08:48:02;3.37;;;1.70;;
19111;SDS011;9688;51.906;8.376;2023-02-28T08:50:56;2.70;;;1.73;;
19111;SDS011;9688;51.906;8.376;2023-02-28T08:53:44;3.73;;;2.00;;
19111;SDS011;9688;51.906;8.376;2023-02-28T08:56:32;5.03;;;1.77;;
19111;SDS011;9688;51.906;8.376;2023-02-28T08:59:18;3.23;;;1.80;;
19111;SDS011;9688;51.906;8.376;2023-02-28T09:02:09;2.57;;;1.63;;
19111;SDS011;9688;51.906;8.376;2023-02-28T09:04:58;1.93;;;1.60;;
19111;SDS011;9688;51.906;8.376;2023-02-28T09:07:45;1.70;;;1.60;;
19111;SDS011;9688;51.906;8.376;2023-02-28T09:10:32;1.57;;;1.47;;
19111;SDS011;9688;51.906;8.376;2023-02-28T09:13:20;2.40;;;1.30;;
19111;SDS011;9688;51.906;8.376;2023-02-28T09:16:09;3.10;;;1.37;;
19111;SDS011;9688;51.906;8.376;2023-02-28T09:18:59;1.77;;;1.67;;
19111;SDS011;9688;51.906;8.376;2023-02-28T09:21:45;1.70;;;1.60;;
19111;SDS011;9688;51.906;8.376;2023-02-28T09:24:31;1.27;;;1.27;;
19111;SDS011;9688;51.906;8.376;2023-02-28T09:27:18;2.70;;;1.40;;
19111;SDS011;9688;51.906;8.376;2023-02-28T09:30:05;3.67;;;1.80;;
19111;SDS011;9688;51.906;8.376;2023-02-28T09:32:53;1.80;;;1.70;;
19111;SDS011;9688;51.906;8.376;2023-02-28T09:35:40;4.07;;;1.67;;
19111;SDS011;9688;51.906;8.376;2023-02-28T09:38:27;2.97;;;1.77;;
19111;SDS011;9688;51.906;8.376;2023-02-28T09:41:14;2.37;;;1.70;;
19111;SDS011;9688;51.906;8.376;2023-02-28T09:44:02;2.67;;;1.87;;
19111;SDS011;9688;51.906;8.376;2023-02-28T09:46:54;2.53;;;1.80;;
19111;SDS011;9688;51.906;8.376;2023-02-28T09:49:44;2.90;;;2.00;;
19111;SDS011;9688;51.906;8.376;2023-02-28T09:52:35;2.60;;;1.77;;
19111;SDS011;9688;51.906;8.376;2023-02-28T09:55:26;2.03;;;1.80;;
19111;SDS011;9688;51.906;8.376;2023-02-28T09:58:17;2.03;;;1.67;;
19111;SDS011;9688;51.906;8.376;2023-02-28T10:01:07;2.73;;;1.60;;
19111;SDS011;9688;51.906;8.376;2023-02-28T10:03:58;3.67;;;2.87;;
19111;SDS011;9688;51.906;8.376;2023-02-28T10:06:49;4.50;;;3.20;;
19111;SDS011;9688;51.906;8.376;2023-02-28T10:09:37;3.57;;;2.83;;
19111;SDS011;9688;51.906;8.376;2023-02-28T10:12:26;2.23;;;2.00;;
19111;SDS011;9688;51.906;8.376;2023-02-28T10:15:14;4.53;;;1.60;;
19111;SDS011;9688;51.906;8.376;2023-02-28T10:18:02;3.17;;;1.90;;
19111;SDS011;9688;51.906;8.376;2023-02-28T10:20:52;4.00;;;1.70;;
19111;SDS011;9688;51.906;8.376;2023-02-28T10:23:40;3.20;;;1.90;;
19111;SDS011;9688;51.906;8.376;2023-02-28T10:26:31;2.37;;;1.90;;
19111;SDS011;9688;51.906;8.376;2023-02-28T10:29:18;1.93;;;1.77;;
19111;SDS011;9688;51.906;8.376;2023-02-28T10:32:04;1.80;;;1.70;;
19111;SDS011;9688;51.906;8.376;2023-02-28T10:34:50;2.40;;;2.20;;
19111;SDS011;9688;51.906;8.376;2023-02-28T10:37:38;2.10;;;2.00;;
19111;SDS011;9688;51.906;8.376;2023-02-28T10:40:28;2.93;;;1.70;;
19111;SDS011;9688;51.906;8.376;2023-02-28T10:43:21;2.70;;;1.90;;
19111;SDS011;9688;51.906;8.376;2023-02-28T10:46:11;3.47;;;2.30;;
19111;SDS011;9688;51.906;8.376;2023-02-28T10:49:13;4.87;;;2.00;;
19111;SDS011;9688;51.906;8.376;2023-02-28T10:52:03;1.87;;;1.70;;
19111;SDS011;9688;51.906;8.376;2023-02-28T10:54:54;1.80;;;1.70;;
19111;SDS011;9688;51.906;8.376;2023-02-28T10:58:01;7.83;;;3.53;;
19111;SDS011;9688;51.906;8.376;2023-02-28T11:00:49;1.90;;;1.80;;
19111;SDS011;9688;51.906;8.376;2023-02-28T11:03:37;2.33;;;1.80;;
19111;SDS011;9688;51.906;8.376;2023-02-28T11:06:28;2.97;;;2.27;;
19111;SDS011;9688;51.906;8.376;2023-02-28T11:09:22;4.13;;;2.43;;
19111;SDS011;9688;51.906;8.376;2023-02-28T11:12:20;2.03;;;1.80;;
19111;SDS011;9688;51.906;8.376;2023-02-28T11:15:18;3.67;;;2.10;;
19111;SDS011;9688;51.906;8.376;2023-02-28T11:18:19;1.93;;;1.83;;
19111;SDS011;9688;51.906;8.376;2023-02-28T11:21:15;2.27;;;1.87;;
19111;SDS011;9688;51.906;8.376;2023-02-28T11:24:05;4.33;;;1.63;;
19111;SDS011;9688;51.906;8.376;2023-02-28T11:27:02;3.70;;;1.87;;
19111;SDS011;9688;51.906;8.376;2023-02-28T11:29:48;1.80;;;1.70;;
19111;SDS011;9688;51.906;8.376;2023-02-28T11:32:33;2.60;;;1.90;;
19111;SDS011;9688;51.906;8.376;2023-02-28T11:35:23;1.93;;;1.70;;
19111;SDS011;9688;51.906;8.376;2023-02-28T11:38:13;1.97;;;1.50;;
19111;SDS011;9688;51.906;8.376;2023-02-28T11:41:04;2.10;;;1.60;;
19111;SDS011;9688;51.906;8.376;2023-02-28T11:44:10;1.83;;;1.60;;
19111;SDS011;9688;51.906;8.376;2023-02-28T11:47:07;4.37;;;1.57;;
19111;SDS011;9688;51.906;8.376;2023-02-28T11:50:03;3.07;;;1.60;;
19111;SDS011;9688;51.906;8.376;2023-02-28T11:53:04;2.60;;;1.67;;
19111;SDS011;9688;51.906;8.376;2023-02-28T11:55:57;3.37;;;1.87;;
19111;SDS011;9688;51.906;8.376;2023-02-28T11:58:51;2.33;;;1.80;;
19111;SDS011;9688;51.906;8.376;2023-02-28T12:01:51;3.13;;;1.90;;
19111;SDS011;9688;51.906;8.376;2023-02-28T12:04:53;10.40;;;2.37;;
19111;SDS011;9688;51.906;8.376;2023-02-28T12:08:04;1.97;;;1.87;;
19111;SDS011;9688;51.906;8.376;2023-02-28T12:11:05;1.80;;;1.70;;
19111;SDS011;9688;51.906;8.376;2023-02-28T12:14:03;2.10;;;1.83;;
19111;SDS011;9688;51.906;8.376;2023-02-28T12:17:11;2.60;;;1.90;;
19111;SDS011;9688;51.906;8.376;2023-02-28T12:20:10;3.70;;;1.80;;
19111;SDS011;9688;51.906;8.376;2023-02-28T12:26:35;2.23;;;1.83;;
19111;SDS011;9688;51.906;8.376;2023-02-28T12:29:26;1.97;;;1.87;;
19111;SDS011;9688;51.906;8.376;2023-02-28T12:32:15;2.57;;;2.30;;
19111;SDS011;9688;51.906;8.376;2023-02-28T12:35:06;2.47;;;2.27;;
19111;SDS011;9688;51.906;8.376;2023-02-28T12:37:59;6.20;;;2.67;;
19111;SDS011;9688;51.906;8.376;2023-02-28T12:40:53;2.07;;;1.90;;
19111;SDS011;9688;51.906;8.376;2023-02-28T12:43:43;2.57;;;2.10;;
19111;SDS011;9688;51.906;8.376;2023-02-28T12:46:35;3.07;;;1.90;;
19111;SDS011;9688;51.906;8.376;2023-02-28T12:49:30;2.13;;;2.00;;
19111;SDS011;9688;51.906;8.376;2023-02-28T12:52:20;4.33;;;2.17;;
19111;SDS011;9688;51.906;8.376;2023-02-28T12:55:14;3.57;;;2.30;;
19111;SDS011;9688;51.906;8.376;2023-02-28T12:58:11;2.73;;;2.13;;
19111;SDS011;9688;51.906;8.376;2023-02-28T13:01:08;3.83;;;2.30;;
19111;SDS011;9688;51.906;8.376;2023-02-28T13:07:49;2.60;;;1.97;;
19111;SDS011;9688;51.906;8.376;2023-02-28T13:10:54;5.00;;;1.97;;
19111;SDS011;9688;51.906;8.376;2023-02-28T13:13:42;2.20;;;2.00;;
19111;SDS011;9688;51.906;8.376;2023-02-28T13:16:48;1.80;;;1.70;;
19111;SDS011;9688;51.906;8.376;2023-02-28T13:19:40;2.77;;;2.10;;
19111;SDS011;9688;51.906;8.376;2023-02-28T13:22:41;2.30;;;2.10;;
19111;SDS011;9688;51.906;8.376;2023-02-28T13:32:28;2.13;;;2.00;;
19111;SDS011;9688;51.906;8.376;2023-02-28T13:35:34;3.00;;;2.13;;
19111;SDS011;9688;51.906;8.376;2023-02-28T13:38:24;2.97;;;2.00;;
19111;SDS011;9688;51.906;8.376;2023-02-28T13:44:33;3.10;;;2.10;;
19111;SDS011;9688;51.906;8.376;2023-02-28T13:48:03;2.50;;;1.70;;
19111;SDS011;9688;51.906;8.376;2023-02-28T13:50:49;4.83;;;2.00;;
19111;SDS011;9688;51.906;8.376;2023-02-28T13:53:47;3.93;;;1.93;;
19111;SDS011;9688;51.906;8.376;2023-02-28T13:56:47;3.53;;;2.23;;
19111;SDS011;9688;51.906;8.376;2023-02-28T13:59:45;2.00;;;1.90;;
19111;SDS011;9688;51.906;8.376;2023-02-28T14:02:44;3.40;;;2.40;;
19111;SDS011;9688;51.906;8.376;2023-02-28T14:05:49;4.33;;;2.30;;
19111;SDS011;9688;51.906;8.376;2023-02-28T14:08:57;3.27;;;2.30;;
19111;SDS011;9688;51.906;8.376;2023-02-28T14:11:47;2.30;;;2.10;;
19111;SDS011;9688;51.906;8.376;2023-02-28T14:14:53;2.20;;;2.00;;
19111;SDS011;9688;51.906;8.376;2023-02-28T14:17:41;2.43;;;2.23;;
19111;SDS011;9688;51.906;8.376;2023-02-28T14:20:30;2.77;;;2.13;;
19111;SDS011;9688;51.906;8.376;2023-02-28T14:23:26;4.00;;;2.50;;
19111;SDS011;9688;51.906;8.376;2023-02-28T14:26:32;3.50;;;2.30;;
19111;SDS011;9688;51.906;8.376;2023-02-28T14:33:11;3.33;;;2.30;;
19111;SDS011;9688;51.906;8.376;2023-02-28T14:36:10;3.87;;;2.63;;
19111;SDS011;9688;51.906;8.376;2023-02-28T14:39:06;3.23;;;2.60;;
19111;SDS011;9688;51.906;8.376;2023-02-28T14:41:57;2.00;;;1.87;;
19111;SDS011;9688;51.906;8.376;2023-02-28T14:44:53;2.70;;;2.30;;
19111;SDS011;9688;51.906;8.376;2023-02-28T14:47:41;10.30;;;3.83;;
19111;SDS011;9688;51.906;8.376;2023-02-28T14:50:30;14.23;;;6.47;;
19111;SDS011;9688;51.906;8.376;2023-02-28T14:53:20;8.60;;;4.73;;
19111;SDS011;9688;51.906;8.376;2023-02-28T14:56:22;4.03;;;2.70;;
19111;SDS011;9688;51.906;8.376;2023-02-28T14:59:25;6.07;;;3.50;;
19111;SDS011;9688;51.906;8.376;2023-02-28T15:02:16;8.57;;;3.47;;
19111;SDS011;9688;51.906;8.376;2023-02-28T15:05:14;6.13;;;3.63;;
19111;SDS011;9688;51.906;8.376;2023-02-28T15:08:11;3.73;;;2.87;;
19111;SDS011;9688;51.906;8.376;2023-02-28T15:11:05;3.30;;;2.47;;
19111;SDS011;9688;51.906;8.376;2023-02-28T15:13:55;3.27;;;2.63;;
19111;SDS011;9688;51.906;8.376;2023-02-28T15:16:42;5.57;;;2.50;;
19111;SDS011;9688;51.906;8.376;2023-02-28T15:19:30;4.60;;;3.10;;
19111;SDS011;9688;51.906;8.376;2023-02-28T15:22:23;3.20;;;2.40;;
19111;SDS011;9688;51.906;8.376;2023-02-28T15:25:15;4.63;;;2.70;;
19111;SDS011;9688;51.906;8.376;2023-02-28T15:28:04;2.87;;;2.37;;
19111;SDS011;9688;51.906;8.376;2023-02-28T15:30:53;3.30;;;2.90;;
19111;SDS011;9688;51.906;8.376;2023-02-28T15:33:47;4.07;;;2.30;;
19111;SDS011;9688;51.906;8.376;2023-02-28T15:36:40;4.10;;;2.63;;
19111;SDS011;9688;51.906;8.376;2023-02-28T15:39:28;4.80;;;2.77;;
19111;SDS011;9688;51.906;8.376;2023-02-28T15:42:17;6.73;;;4.43;;
19111;SDS011;9688;51.906;8.376;2023-02-28T15:45:05;4.50;;;3.83;;
19111;SDS011;9688;51.906;8.376;2023-02-28T15:48:15;3.60;;;2.60;;
19111;SDS011;9688;51.906;8.376;2023-02-28T15:51:06;3.87;;;2.60;;
19111;SDS011;9688;51.906;8.376;2023-02-28T15:53:54;9.90;;;3.03;;
19111;SDS011;9688;51.906;8.376;2023-02-28T15:56:43;7.63;;;4.57;;
19111;SDS011;9688;51.906;8.376;2023-02-28T15:59:30;5.77;;;3.27;;
19111;SDS011;9688;51.906;8.376;2023-02-28T16:02:17;3.50;;;2.63;;
19111;SDS011;9688;51.906;8.376;2023-02-28T16:05:22;2.60;;;2.40;;
19111;SDS011;9688;51.906;8.376;2023-02-28T16:08:19;8.53;;;3.27;;
19111;SDS011;9688;51.906;8.376;2023-02-28T16:11:07;5.47;;;3.17;;
19111;SDS011;9688;51.906;8.376;2023-02-28T16:13:54;5.80;;;3.30;;
19111;SDS011;9688;51.906;8.376;2023-02-28T16:16:41;5.70;;;2.37;;
19111;SDS011;9688;51.906;8.376;2023-02-28T16:19:29;2.73;;;2.53;;
19111;SDS011;9688;51.906;8.376;2023-02-28T16:22:17;5.07;;;2.80;;
19111;SDS011;9688;51.906;8.376;2023-02-28T16:25:03;4.37;;;2.50;;
19111;SDS011;9688;51.906;8.376;2023-02-28T16:27:52;4.60;;;2.80;;
19111;SDS011;9688;51.906;8.376;2023-02-28T16:30:41;2.50;;;2.30;;
19111;SDS011;9688;51.906;8.376;2023-02-28T16:33:30;4.07;;;2.63;;
19111;SDS011;9688;51.906;8.376;2023-02-28T16:36:18;3.10;;;2.53;;
19111;SDS011;9688;51.906;8.376;2023-02-28T16:39:11;12.50;;;2.70;;
19111;SDS011;9688;51.906;8.376;2023-02-28T16:41:59;3.13;;;2.83;;
19111;SDS011;9688;51.906;8.376;2023-02-28T16:44:45;3.03;;;2.57;;
19111;SDS011;9688;51.906;8.376;2023-02-28T16:47:32;3.50;;;2.70;;
19111;SDS011;9688;51.906;8.376;2023-02-28T16:50:19;4.63;;;3.03;;
19111;SDS011;9688;51.906;8.376;2023-02-28T16:53:07;4.37;;;3.30;;
19111;SDS011;9688;51.906;8.376;2023-02-28T16:56:00;3.87;;;2.80;;
19111;SDS011;9688;51.906;8.376;2023-02-28T16:58:48;9.17;;;4.70;;
19111;SDS011;9688;51.906;8.376;2023-02-28T17:01:34;7.50;;;4.50;;
19111;SDS011;9688;51.906;8.376;2023-02-28T17:04:20;6.67;;;4.97;;
19111;SDS011;9688;51.906;8.376;2023-02-28T17:07:08;8.37;;;4.57;;
19111;SDS011;9688;51.906;8.376;2023-02-28T17:09:58;8.20;;;3.77;;
19111;SDS011;9688;51.906;8.376;2023-02-28T17:12:54;5.77;;;3.80;;
19111;SDS011;9688;51.906;8.376;2023-02-28T17:15:40;3.60;;;2.90;;
19111;SDS011;9688;51.906;8.376;2023-02-28T17:18:27;7.70;;;4.03;;
19111;SDS011;9688;51.906;8.376;2023-02-28T17:21:18;7.40;;;4.20;;
19111;SDS011;9688;51.906;8.376;2023-02-28T17:24:04;7.73;;;3.70;;
19111;SDS011;9688;51.906;8.376;2023-02-28T17:26:51;8.63;;;4.20;;
19111;SDS011;9688;51.906;8.376;2023-02-28T17:29:38;7.43;;;4.30;;
19111;SDS011;9688;51.906;8.376;2023-02-28T17:32:24;5.37;;;3.97;;
19111;SDS011;9688;51.906;8.376;2023-02-28T17:35:11;4.20;;;3.80;;
19111;SDS011;9688;51.906;8.376;2023-02-28T17:37:58;5.37;;;4.00;;
19111;SDS011;9688;51.906;8.376;2023-02-28T17:40:45;6.33;;;4.00;;
19111;SDS011;9688;51.906;8.376;2023-02-28T17:43:31;5.53;;;3.90;;
19111;SDS011;9688;51.906;8.376;2023-02-28T17:46:19;10.27;;;4.17;;
19111;SDS011;9688;51.906;8.376;2023-02-28T17:49:08;4.07;;;3.50;;